Time;durP1;ratioP1;P1;durP2;ratioP2;P2;SDS_P1;SDS_P2;PMS_P1;PMS_P2;Temp;Humidity;BMP_temperature;BMP_pressure;BME280_temperature;BME280_humidity;BME280_pressure;Samples;Min_cycle;Max_cycle;Signal;HPM_P1;HPM_P2
2022/11/19 00:01:59;;;;;;;2.20;1.00;;;8.10;99.90;;;;;;4975293;28;20488;-68
2022/11/19 00:04:26;;;;;;;2.23;1.00;;;8.00;99.90;;;;;;4987657;28;20487;-68
2022/11/19 00:06:53;;;;;;;1.73;1.23;;;7.90;99.90;;;;;;4986686;28;20465;-69
2022/11/19 00:09:20;;;;;;;1.57;1.10;;;8.10;99.90;;;;;;4991675;28;20479;-68
2022/11/19 00:14:33;;;;;;;1.60;1.33;;;8.00;99.90;;;;;;4998519;28;20451;-68
2022/11/19 00:17:00;;;;;;;2.00;1.37;;;8.00;99.90;;;;;;4985524;28;20515;-68
2022/11/19 00:19:27;;;;;;;7.33;1.13;;;8.00;99.90;;;;;;4992167;28;20450;-69
2022/11/19 00:21:54;;;;;;;1.47;0.77;;;7.90;99.90;;;;;;4980943;28;20453;-68
2022/11/19 00:24:21;;;;;;;2.03;1.30;;;7.90;99.90;;;;;;4990922;28;20488;-68
2022/11/19 00:26:48;;;;;;;2.30;1.27;;;8.00;99.90;;;;;;4989412;28;20461;-69
2022/11/19 00:29:15;;;;;;;1.63;1.37;;;7.90;99.90;;;;;;4980967;28;20452;-68
2022/11/19 00:31:43;;;;;;;1.50;0.90;;;7.80;99.90;;;;;;4980031;28;20468;-68
2022/11/19 00:34:11;;;;;;;1.93;1.23;;;7.80;99.90;;;;;;4988400;28;20468;-69
2022/11/19 00:36:38;;;;;;;1.60;1.23;;;7.70;99.90;;;;;;4980688;28;20504;-68
2022/11/19 00:39:05;;;;;;;1.50;1.30;;;7.70;99.90;;;;;;4973961;28;20971;-68
2022/11/19 00:41:32;;;;;;;1.40;0.90;;;7.70;99.90;;;;;;4991858;28;20455;-68
2022/11/19 00:43:58;;;;;;;5.90;1.60;;;7.80;99.90;;;;;;4984813;28;20476;-69
2022/11/19 00:46:29;;;;;;;1.83;1.30;;;7.80;99.90;;;;;;4987583;28;20457;-68
2022/11/19 00:48:58;;;;;;;1.57;1.07;;;7.80;99.90;;;;;;4979386;28;20456;-69
2022/11/19 00:51:27;;;;;;;1.23;0.90;;;7.80;99.90;;;;;;4974177;28;20453;-68
2022/11/19 00:53:54;;;;;;;2.23;1.17;;;8.00;99.90;;;;;;4979907;28;20460;-68
2022/11/19 00:56:23;;;;;;;1.67;1.10;;;8.00;99.90;;;;;;4980134;28;20974;-69
2022/11/19 00:58:50;;;;;;;1.40;0.97;;;8.00;99.90;;;;;;4980930;28;20464;-69
2022/11/19 01:01:19;;;;;;;1.03;0.70;;;7.90;99.90;;;;;;4993063;28;20487;-68
2022/11/19 01:03:46;;;;;;;1.40;0.90;;;7.90;99.90;;;;;;4992339;28;20491;-69
2022/11/19 01:06:16;;;;;;;2.10;0.87;;;7.90;99.90;;;;;;4988799;28;20448;-68
2022/11/19 01:08:43;;;;;;;1.70;1.20;;;7.80;99.90;;;;;;4991528;28;20473;-68
2022/11/19 01:11:12;;;;;;;3.50;1.30;;;7.70;99.90;;;;;;4982626;28;20465;-68
2022/11/19 01:13:39;;;;;;;1.30;0.87;;;7.70;99.90;;;;;;4986384;28;20820;-68
2022/11/19 01:16:08;;;;;;;1.47;1.13;;;7.60;99.90;;;;;;4989222;28;20457;-68
2022/11/19 01:18:36;;;;;;;1.17;1.07;;;7.50;99.90;;;;;;4979582;28;20456;-68
2022/11/19 01:21:03;;;;;;;2.60;1.20;;;7.50;99.90;;;;;;4983539;28;20470;-68
2022/11/19 01:23:32;;;;;;;1.60;0.90;;;7.50;99.90;;;;;;4987949;28;20455;-68
2022/11/19 01:25:59;;;;;;;1.30;1.00;;;7.60;99.90;;;;;;4983963;28;20444;-69
2022/11/19 01:28:26;;;;;;;1.33;0.80;;;7.60;99.90;;;;;;4986369;28;20816;-68
2022/11/19 01:30:52;;;;;;;1.17;0.63;;;7.70;99.90;;;;;;4983448;28;20457;-68
2022/11/19 01:33:21;;;;;;;1.00;0.73;;;7.60;99.90;;;;;;4990462;28;20456;-68
2022/11/19 01:35:55;;;;;;;0.90;0.77;;;7.60;99.90;;;;;;4979326;28;20539;-68
2022/11/19 01:38:22;;;;;;;1.30;0.77;;;7.60;99.90;;;;;;4978702;28;20454;-68
2022/11/19 01:40:50;;;;;;;1.47;1.17;;;7.60;99.90;;;;;;4988341;28;20454;-69
2022/11/19 01:43:17;;;;;;;2.17;1.30;;;7.50;99.90;;;;;;4978876;28;20455;-68
2022/11/19 01:45:47;;;;;;;1.30;0.77;;;7.40;99.90;;;;;;4991005;28;20811;-68
2022/11/19 01:48:18;;;;;;;1.17;0.67;;;7.30;99.90;;;;;;4991199;28;20818;-68
2022/11/19 01:50:52;;;;;;;1.00;0.63;;;7.30;99.90;;;;;;4989007;28;20448;-68
2022/11/19 01:53:20;;;;;;;1.30;1.03;;;7.20;99.90;;;;;;4982521;28;20460;-68
2022/11/19 01:55:48;;;;;;;1.20;0.90;;;7.10;99.90;;;;;;4983647;28;20561;-68
2022/11/19 01:58:20;;;;;;;1.90;0.80;;;7.10;99.90;;;;;;4990517;28;20455;-68
2022/11/19 02:00:48;;;;;;;2.03;0.83;;;7.20;99.90;;;;;;4989829;28;20470;-68
2022/11/19 02:03:17;;;;;;;1.23;1.00;;;7.10;99.90;;;;;;4991974;28;20969;-68
2022/11/19 02:05:46;;;;;;;1.10;0.83;;;7.10;99.90;;;;;;4972691;28;20483;-68
2022/11/19 02:08:35;;;;;;;1.23;1.00;;;7.20;99.90;;;;;;4979332;28;20459;-68
2022/11/19 02:11:18;;;;;;;1.27;0.97;;;7.20;99.90;;;;;;4975905;28;20463;-68
2022/11/19 02:13:52;;;;;;;1.00;0.80;;;7.10;99.90;;;;;;4988349;28;20452;-68
2022/11/19 02:16:27;;;;;;;3.00;1.17;;;7.10;99.90;;;;;;4979871;28;20812;-68
2022/11/19 02:18:58;;;;;;;2.40;1.20;;;7.20;99.90;;;;;;4989107;28;20763;-68
2022/11/19 02:21:34;;;;;;;1.03;0.83;;;7.20;99.90;;;;;;4977905;28;20461;-68
2022/11/19 02:24:30;;;;;;;1.20;0.80;;;7.20;99.90;;;;;;4981075;28;20480;-68
2022/11/19 02:27:22;;;;;;;3.83;1.00;;;7.10;99.90;;;;;;4979826;28;20736;-68
2022/11/19 02:30:09;;;;;;;1.77;1.10;;;7.40;99.90;;;;;;4987518;28;20814;-68
2022/11/19 02:32:47;;;;;;;2.50;1.67;;;7.40;99.90;;;;;;4977299;28;20476;-69
2022/11/19 02:35:21;;;;;;;1.00;0.70;;;7.30;99.90;;;;;;4986550;28;20483;-68
2022/11/19 02:37:55;;;;;;;2.37;1.70;;;7.30;99.90;;;;;;4979779;28;20458;-68
2022/11/19 02:40:27;;;;;;;1.77;1.20;;;7.30;99.90;;;;;;4982078;28;20470;-68
2022/11/19 02:43:03;;;;;;;1.70;1.13;;;7.40;99.90;;;;;;4981547;28;20812;-68
2022/11/19 02:45:35;;;;;;;2.87;1.17;;;7.50;99.90;;;;;;4991729;28;20464;-68
2022/11/19 02:48:08;;;;;;;1.67;1.10;;;7.60;99.90;;;;;;4980881;28;20463;-68
2022/11/19 02:50:39;;;;;;;1.60;1.17;;;7.60;99.90;;;;;;4988583;28;20452;-69
2022/11/19 02:53:06;;;;;;;3.63;1.43;;;7.50;99.90;;;;;;4985358;28;20548;-68
2022/11/19 02:55:40;;;;;;;2.33;1.30;;;7.30;99.90;;;;;;4977844;28;20452;-68
2022/11/19 03:04:28;;;;;;;1.50;1.00;;;7.30;99.90;;;;;;4991023;28;20463;-68
2022/11/19 03:06:33;;;;;;;3.20;1.40;;;7.50;99.90;;;;;;4973434;28;20597;-68
2022/11/19 03:09:00;;;;;;;2.10;0.93;;;7.70;99.90;;;;;;4989081;28;21033;-69
2022/11/19 03:11:29;;;;;;;1.27;0.87;;;7.80;99.90;;;;;;4983760;28;21337;-69
2022/11/19 03:16:55;;;;;;;2.07;0.80;;;7.90;99.90;;;;;;4986087;28;20541;-68
2022/11/19 03:19:33;;;;;;;2.40;1.07;;;8.00;99.90;;;;;;4979821;28;20472;-68
2022/11/19 03:22:04;;;;;;;2.33;1.43;;;8.10;99.90;;;;;;4983889;28;20918;-68
2022/11/19 03:24:35;;;;;;;1.40;1.20;;;8.00;99.90;;;;;;4984444;28;20486;-68
2022/11/19 03:27:08;;;;;;;1.47;1.00;;;7.90;99.90;;;;;;4972972;28;20465;-69
2022/11/19 03:29:41;;;;;;;2.70;0.87;;;7.80;99.90;;;;;;4972648;28;20802;-69
2022/11/19 03:32:13;;;;;;;1.47;1.00;;;7.90;99.90;;;;;;4971105;28;20965;-69
2022/11/19 03:34:43;;;;;;;2.03;1.17;;;7.90;99.90;;;;;;4984348;28;20459;-69
2022/11/19 03:37:11;;;;;;;1.97;1.40;;;8.00;99.90;;;;;;4976600;28;20457;-69
2022/11/19 03:39:40;;;;;;;3.00;2.13;;;7.90;99.90;;;;;;4985035;28;20464;-69
2022/11/19 03:42:11;;;;;;;1.47;0.90;;;7.90;99.90;;;;;;4985596;28;20971;-69
2022/11/19 03:44:42;;;;;;;1.30;0.87;;;7.80;99.90;;;;;;4979351;28;20470;-68
2022/11/19 03:47:14;;;;;;;1.43;1.30;;;7.80;99.90;;;;;;4983621;28;20446;-68
2022/11/19 03:49:44;;;;;;;1.63;0.93;;;7.80;99.90;;;;;;4981676;28;20623;-69
2022/11/19 03:52:13;;;;;;;3.13;1.10;;;7.80;99.90;;;;;;4984110;28;20448;-69
2022/11/19 03:54:40;;;;;;;0.83;0.60;;;7.80;99.90;;;;;;4970499;28;20473;-69
2022/11/19 03:57:10;;;;;;;1.27;0.77;;;7.80;99.90;;;;;;4984353;28;20805;-69
2022/11/19 03:59:37;;;;;;;2.20;1.10;;;7.80;99.90;;;;;;4970954;28;20458;-69
2022/11/19 04:02:06;;;;;;;1.10;0.70;;;8.00;99.90;;;;;;4987528;28;20520;-68
2022/11/19 04:04:37;;;;;;;1.20;1.07;;;8.00;99.90;;;;;;4980077;28;21025;-69
2022/11/19 04:07:10;;;;;;;0.80;0.67;;;8.10;99.90;;;;;;4987856;28;20455;-68
2022/11/19 04:09:38;;;;;;;0.93;0.77;;;8.10;99.90;;;;;;4982658;28;20449;-69
2022/11/19 04:12:06;;;;;;;1.27;0.83;;;8.10;99.90;;;;;;4984698;28;20454;-69
2022/11/19 04:14:33;;;;;;;0.97;0.70;;;8.20;99.90;;;;;;4989941;28;20461;-69
2022/11/19 04:17:00;;;;;;;2.60;0.70;;;8.00;99.90;;;;;;4983489;28;20464;-69
2022/11/19 04:19:27;;;;;;;2.10;0.67;;;8.10;99.90;;;;;;4971553;28;20458;-69
2022/11/19 04:21:55;;;;;;;0.93;0.60;;;8.10;99.90;;;;;;4988326;28;20457;-69
2022/11/19 04:24:21;;;;;;;2.10;1.30;;;8.00;99.90;;;;;;4991099;28;20474;-69
2022/11/19 04:26:49;;;;;;;1.17;0.70;;;7.90;99.90;;;;;;4984814;28;20450;-70
2022/11/19 04:29:15;;;;;;;1.00;0.73;;;8.00;99.90;;;;;;4992627;28;20454;-69
2022/11/19 04:31:42;;;;;;;1.10;0.60;;;8.00;99.90;;;;;;4986379;28;20469;-68
2022/11/19 04:34:09;;;;;;;1.00;0.80;;;7.90;99.90;;;;;;4986617;28;20452;-68
2022/11/19 04:36:36;;;;;;;0.87;0.60;;;7.80;99.90;;;;;;4987517;28;20464;-68
2022/11/19 04:39:04;;;;;;;1.53;0.80;;;7.90;99.90;;;;;;4985496;28;20455;-69
2022/11/19 04:41:31;;;;;;;1.13;0.80;;;7.80;99.90;;;;;;4986952;28;20450;-69
2022/11/19 04:43:57;;;;;;;1.30;0.70;;;7.70;99.90;;;;;;4990089;28;20460;-69
2022/11/19 04:46:24;;;;;;;1.17;0.80;;;7.70;99.90;;;;;;4986626;28;20496;-68
2022/11/19 04:48:51;;;;;;;1.10;0.80;;;7.80;99.90;;;;;;4978444;28;20455;-69
2022/11/19 04:51:18;;;;;;;1.90;1.10;;;7.80;99.90;;;;;;4981250;28;20823;-69
2022/11/19 04:53:45;;;;;;;1.23;0.93;;;7.70;99.90;;;;;;4979625;28;20446;-69
2022/11/19 04:56:13;;;;;;;1.10;0.70;;;7.80;99.90;;;;;;4987386;28;20454;-68
2022/11/19 04:58:40;;;;;;;1.10;0.90;;;7.80;99.90;;;;;;4983374;28;20452;-68
2022/11/19 05:01:07;;;;;;;1.00;0.70;;;7.70;99.90;;;;;;4975581;28;20479;-68
2022/11/19 05:03:33;;;;;;;1.33;0.93;;;7.70;99.90;;;;;;4975686;28;20447;-68
2022/11/19 05:06:00;;;;;;;1.10;1.00;;;7.60;99.90;;;;;;4985434;28;20493;-68
2022/11/19 05:08:27;;;;;;;2.43;1.87;;;7.60;99.90;;;;;;4980788;28;20470;-69
2022/11/19 05:10:54;;;;;;;9.80;2.00;;;7.60;99.90;;;;;;4989405;28;20496;-69
2022/11/19 05:13:22;;;;;;;2.03;0.93;;;7.80;99.90;;;;;;4990827;28;20448;-69
2022/11/19 05:15:49;;;;;;;1.20;1.00;;;7.80;99.90;;;;;;4984800;28;20487;-69
2022/11/19 05:18:16;;;;;;;1.33;0.67;;;7.80;99.90;;;;;;4986695;28;20446;-67
2022/11/19 05:20:42;;;;;;;1.17;0.93;;;7.90;99.90;;;;;;4992528;28;20476;-69
2022/11/19 05:23:09;;;;;;;1.17;0.90;;;7.90;99.90;;;;;;4977523;28;20457;-68
2022/11/19 05:25:36;;;;;;;1.70;1.50;;;7.80;99.90;;;;;;4979506;28;20984;-69
2022/11/19 05:28:03;;;;;;;3.70;1.20;;;7.90;99.90;;;;;;4989881;28;20457;-68
2022/11/19 05:30:31;;;;;;;1.60;0.93;;;7.80;99.90;;;;;;4989885;28;20545;-68
2022/11/19 05:32:58;;;;;;;1.53;1.00;;;7.80;99.90;;;;;;4976326;28;20461;-70
2022/11/19 05:35:25;;;;;;;2.30;1.10;;;7.90;99.90;;;;;;4991351;28;20813;-71
2022/11/19 05:37:52;;;;;;;1.27;1.03;;;7.90;99.90;;;;;;4976508;28;20933;-70
2022/11/19 05:40:19;;;;;;;2.77;1.20;;;7.90;99.90;;;;;;4985712;28;20452;-69
2022/11/19 05:42:46;;;;;;;1.33;1.00;;;7.90;99.90;;;;;;4974831;28;20450;-69
2022/11/19 05:45:13;;;;;;;1.97;1.17;;;7.80;99.90;;;;;;4977165;28;20828;-69
2022/11/19 05:47:41;;;;;;;4.60;1.23;;;7.80;99.90;;;;;;4976634;28;20459;-69
2022/11/19 05:50:08;;;;;;;1.17;1.07;;;7.80;99.90;;;;;;4980233;28;20454;-70
2022/11/19 05:52:35;;;;;;;3.33;1.30;;;7.90;99.90;;;;;;4985433;28;20819;-71
2022/11/19 05:55:02;;;;;;;2.77;1.60;;;7.90;99.90;;;;;;4976724;28;20456;-70
2022/11/19 05:57:29;;;;;;;1.40;0.80;;;8.00;99.90;;;;;;4974560;28;20807;-70
2022/11/19 05:59:56;;;;;;;1.63;1.13;;;7.90;99.90;;;;;;4971874;28;20461;-71
2022/11/19 06:02:22;;;;;;;1.10;0.80;;;7.80;99.90;;;;;;4991216;28;20461;-71
2022/11/19 06:04:51;;;;;;;3.53;1.30;;;7.80;99.90;;;;;;4981365;28;20458;-70
2022/11/19 06:07:17;;;;;;;1.40;1.03;;;7.90;99.90;;;;;;4974055;28;20497;-70
2022/11/19 06:09:44;;;;;;;1.50;0.90;;;7.90;99.90;;;;;;4990152;28;20461;-70
2022/11/19 06:12:11;;;;;;;1.20;0.70;;;7.90;99.90;;;;;;4980809;28;20465;-71
2022/11/19 06:14:38;;;;;;;1.20;0.80;;;8.00;99.90;;;;;;4984623;28;20458;-70
2022/11/19 06:17:05;;;;;;;1.93;1.67;;;8.00;99.90;;;;;;4985589;28;20449;-71
2022/11/19 06:19:32;;;;;;;1.50;1.10;;;8.00;99.90;;;;;;4997749;28;20491;-69
2022/11/19 06:22:00;;;;;;;1.20;0.90;;;8.10;99.90;;;;;;4979297;28;20465;-71
2022/11/19 06:24:27;;;;;;;1.37;0.80;;;8.20;99.90;;;;;;4991895;28;20450;-69
2022/11/19 06:26:53;;;;;;;1.20;1.03;;;8.20;99.90;;;;;;4987830;28;20489;-69
2022/11/19 06:29:20;;;;;;;2.77;1.33;;;8.10;99.90;;;;;;4983149;28;20453;-69
2022/11/19 06:31:47;;;;;;;2.40;1.27;;;8.20;99.90;;;;;;4985394;28;20459;-69
2022/11/19 06:34:14;;;;;;;1.10;0.83;;;8.20;99.90;;;;;;4977199;28;20453;-69
2022/11/19 06:36:41;;;;;;;1.70;1.50;;;8.20;99.90;;;;;;4980611;28;20462;-69
2022/11/19 06:39:09;;;;;;;1.07;0.80;;;8.20;99.90;;;;;;4991711;28;20456;-69
2022/11/19 06:41:36;;;;;;;1.30;1.17;;;8.20;99.90;;;;;;4989754;28;20464;-69
2022/11/19 06:44:03;;;;;;;0.93;0.60;;;8.10;99.90;;;;;;4983053;28;20559;-69
2022/11/19 06:46:30;;;;;;;1.23;0.80;;;8.10;99.90;;;;;;4979430;28;20484;-70
2022/11/19 06:48:57;;;;;;;2.93;1.33;;;8.10;99.90;;;;;;4989705;28;20456;-70
2022/11/19 06:51:24;;;;;;;0.90;0.80;;;8.10;99.90;;;;;;4987640;28;20458;-71
2022/11/19 06:53:51;;;;;;;1.83;1.13;;;8.20;99.90;;;;;;4984307;28;20450;-71
2022/11/19 06:56:19;;;;;;;1.10;0.90;;;8.20;99.90;;;;;;4979869;28;20454;-70
2022/11/19 06:58:46;;;;;;;1.73;0.97;;;8.20;99.90;;;;;;4986836;28;20457;-72
2022/11/19 07:01:14;;;;;;;1.47;1.00;;;8.20;99.90;;;;;;4988536;28;20477;-71
2022/11/19 07:03:41;;;;;;;1.70;1.33;;;8.10;99.90;;;;;;4978275;28;20457;-70
2022/11/19 07:06:08;;;;;;;1.37;0.90;;;8.10;99.90;;;;;;4985146;28;20504;-71
2022/11/19 07:08:36;;;;;;;1.90;1.20;;;8.00;99.90;;;;;;4983925;28;20472;-70
2022/11/19 07:11:24;;;;;;;3.10;1.00;;;8.00;99.90;;;;;;4982419;28;20454;-71
2022/11/19 07:13:59;;;;;;;1.50;0.93;;;8.00;99.90;;;;;;4986209;28;20465;-72
2022/11/19 07:16:28;;;;;;;3.83;1.00;;;7.90;99.90;;;;;;4974253;28;20452;-71
2022/11/19 07:18:57;;;;;;;1.10;0.80;;;7.90;99.90;;;;;;4990151;28;20951;-71
2022/11/19 07:21:24;;;;;;;2.33;1.03;;;7.80;99.90;;;;;;4977429;28;20866;-71
2022/11/19 07:23:51;;;;;;;1.73;0.87;;;7.80;99.90;;;;;;4987781;28;20464;-70
2022/11/19 07:26:17;;;;;;;1.53;1.00;;;7.80;99.90;;;;;;4988572;28;20481;-72
2022/11/19 07:28:44;;;;;;;1.10;0.80;;;7.70;99.90;;;;;;4978835;28;20453;-70
2022/11/19 07:31:12;;;;;;;1.27;0.70;;;7.60;99.90;;;;;;4977539;28;20822;-70
2022/11/19 07:33:40;;;;;;;1.90;1.40;;;7.60;99.90;;;;;;4978979;28;20457;-70
2022/11/19 07:36:08;;;;;;;1.50;1.03;;;7.70;99.90;;;;;;4976528;28;20457;-70
2022/11/19 07:38:36;;;;;;;3.77;1.40;;;7.80;99.90;;;;;;4980278;28;20471;-71
2022/11/19 07:42:47;;;;;;;3.20;1.50;;;7.80;99.90;;;;;;4986305;28;20445;-70
2022/11/19 07:43:49;;;;;;;3.50;1.60;;;7.90;99.90;;;;;;4982135;28;20441;-70
2022/11/19 07:46:17;;;;;;;1.10;0.90;;;7.90;99.90;;;;;;4973266;28;21007;-70
2022/11/19 07:48:44;;;;;;;1.43;1.33;;;8.00;99.90;;;;;;4982319;28;20198;-70
2022/11/19 07:51:11;;;;;;;1.60;1.10;;;8.10;99.90;;;;;;4973244;28;20473;-70
2022/11/19 07:53:37;;;;;;;2.30;1.20;;;8.20;99.90;;;;;;4983135;28;20459;-70
2022/11/19 07:56:05;;;;;;;2.70;2.07;;;8.20;99.90;;;;;;4972178;28;20464;-70
2022/11/19 07:58:31;;;;;;;1.93;1.20;;;8.00;99.90;;;;;;4985436;28;20455;-70
2022/11/19 08:00:58;;;;;;;1.50;1.13;;;8.10;99.90;;;;;;4982216;28;20498;-69
2022/11/19 08:03:26;;;;;;;2.10;1.23;;;8.20;99.90;;;;;;4982244;28;20476;-70
2022/11/19 08:05:53;;;;;;;2.07;1.23;;;8.30;99.90;;;;;;4974733;28;20500;-70
2022/11/19 08:08:20;;;;;;;1.67;1.33;;;8.30;99.90;;;;;;4982802;28;20466;-70
2022/11/19 08:10:47;;;;;;;3.80;1.40;;;8.40;99.90;;;;;;4978140;28;20796;-70
2022/11/19 08:13:13;;;;;;;5.60;1.70;;;8.40;99.90;;;;;;4988667;28;20528;-70
2022/11/19 08:15:40;;;;;;;1.50;1.27;;;8.50;99.90;;;;;;4974829;28;20468;-70
2022/11/19 08:18:12;;;;;;;1.90;1.13;;;8.60;99.90;;;;;;4988129;28;20453;-70
2022/11/19 08:20:41;;;;;;;1.20;1.07;;;8.50;99.90;;;;;;4975301;28;20450;-70
2022/11/19 08:23:09;;;;;;;1.63;0.93;;;8.50;99.90;;;;;;4988237;28;20963;-70
2022/11/19 08:25:36;;;;;;;1.73;1.17;;;8.50;99.90;;;;;;4975161;28;20457;-70
2022/11/19 08:28:04;;;;;;;1.63;1.47;;;8.60;99.90;;;;;;4987369;28;20452;-70
2022/11/19 08:30:32;;;;;;;1.00;0.80;;;8.60;99.90;;;;;;4975233;28;20464;-70
2022/11/19 08:32:59;;;;;;;1.60;0.90;;;8.50;99.90;;;;;;4986740;28;20451;-70
2022/11/19 08:35:25;;;;;;;4.30;1.47;;;8.50;99.90;;;;;;4974671;28;20465;-70
2022/11/19 08:37:53;;;;;;;1.40;0.80;;;8.60;99.90;;;;;;4986692;28;20449;-70
2022/11/19 08:40:20;;;;;;;1.00;0.70;;;8.50;99.90;;;;;;4981058;28;20452;-71
2022/11/19 08:43:01;;;;;;;1.67;0.93;;;8.50;99.90;;;;;;4980335;28;20772;-69
2022/11/19 08:45:29;;;;;;;1.37;0.93;;;8.70;99.90;;;;;;4983144;28;21288;-70
2022/11/19 08:47:58;;;;;;;2.07;1.10;;;8.80;99.90;;;;;;4977798;28;20532;-70
2022/11/19 08:50:25;;;;;;;1.33;0.80;;;8.80;99.90;;;;;;4983093;28;20454;-70
2022/11/19 08:52:58;;;;;;;1.40;0.67;;;8.70;99.90;;;;;;4978798;28;20456;-70
2022/11/19 08:55:26;;;;;;;1.17;0.80;;;8.80;99.90;;;;;;4981797;28;20461;-70
2022/11/19 08:57:59;;;;;;;1.13;0.80;;;8.80;99.90;;;;;;4979186;28;20491;-70
2022/11/19 09:00:26;;;;;;;1.60;1.43;;;8.90;99.90;;;;;;4981793;28;20451;-70
2022/11/19 09:02:52;;;;;;;1.50;1.10;;;9.10;99.90;;;;;;4987453;28;20869;-70
2022/11/19 09:05:19;;;;;;;0.93;0.67;;;9.00;48.40;;;;;;4985327;28;20447;-70
2022/11/19 09:07:46;;;;;;;1.30;1.10;;;9.10;54.20;;;;;;4983571;28;20477;-70
2022/11/19 09:10:14;;;;;;;1.63;0.83;;;9.10;58.80;;;;;;4981085;28;20470;-70
2022/11/19 09:12:41;;;;;;;2.93;1.17;;;9.10;13.80;;;;;;4992248;28;20990;-69
2022/11/19 09:15:09;;;;;;;3.27;2.10;;;9.20;4.90;;;;;;4987296;28;20456;-70
2022/11/19 09:17:36;;;;;;;1.77;0.80;;;9.30;1.00;;;;;;4980751;28;20458;-70
2022/11/19 09:20:03;;;;;;;2.30;0.70;;;9.30;1.00;;;;;;4986469;28;20946;-70
2022/11/19 09:22:31;;;;;;;2.23;1.10;;;9.40;1.00;;;;;;4983184;28;20459;-70
2022/11/19 09:24:57;;;;;;;0.90;0.67;;;9.40;1.00;;;;;;4974413;28;20780;-69
2022/11/19 09:27:25;;;;;;;1.33;0.87;;;9.40;1.00;;;;;;4975252;28;20826;-69
2022/11/19 09:29:52;;;;;;;1.70;1.00;;;9.50;1.00;;;;;;4977855;28;20456;-71
2022/11/19 09:32:19;;;;;;;2.03;0.60;;;9.60;1.00;;;;;;4993332;28;20455;-70
2022/11/19 09:34:46;;;;;;;1.00;0.60;;;9.60;1.00;;;;;;4987945;28;20475;-70
2022/11/19 09:37:13;;;;;;;1.10;0.67;;;9.40;1.00;;;;;;4973250;28;20460;-70
2022/11/19 09:39:40;;;;;;;2.60;0.80;;;9.50;1.00;;;;;;4987356;28;20457;-70
2022/11/19 09:42:15;;;;;;;0.80;0.60;;;9.60;1.00;;;;;;4981546;28;20904;-70
2022/11/19 09:45:02;;;;;;;1.00;0.70;;;9.50;1.00;;;;;;4986223;28;20848;-70
2022/11/19 09:47:44;;;;;;;1.33;1.10;;;9.50;1.00;;;;;;4975298;28;21011;-70
2022/11/19 09:50:15;;;;;;;1.70;0.83;;;9.50;1.00;;;;;;4993048;28;20445;-70
2022/11/19 09:52:46;;;;;;;1.20;0.90;;;9.50;1.00;;;;;;4987332;28;20958;-70
2022/11/19 09:55:20;;;;;;;0.90;0.70;;;9.40;1.00;;;;;;4973610;28;20457;-70
2022/11/19 09:57:51;;;;;;;1.53;1.00;;;9.40;1.00;;;;;;4972661;28;20450;-70
2022/11/19 10:00:22;;;;;;;1.73;0.60;;;9.40;1.00;;;;;;4986928;28;20458;-70
2022/11/19 10:02:50;;;;;;;1.43;0.70;;;9.50;1.00;;;;;;4984149;28;20491;-70
2022/11/19 10:05:27;;;;;;;1.00;0.77;;;9.40;1.00;;;;;;4975540;28;20818;-70
2022/11/19 10:08:04;;;;;;;4.23;1.00;;;9.40;1.00;;;;;;4984575;28;20482;-70
2022/11/19 10:10:40;;;;;;;1.70;1.07;;;9.50;1.00;;;;;;4978308;28;20454;-70
2022/11/19 10:13:23;;;;;;;1.13;0.90;;;9.60;1.00;;;;;;4986335;28;20450;-70
2022/11/19 10:16:02;;;;;;;1.40;0.90;;;9.60;1.00;;;;;;4989065;28;20819;-70
2022/11/19 10:18:38;;;;;;;1.50;0.80;;;9.50;1.00;;;;;;4977261;28;20443;-69
2022/11/19 10:21:08;;;;;;;2.30;0.80;;;9.60;1.00;;;;;;4984184;28;20866;-70
2022/11/19 10:23:48;;;;;;;1.30;0.90;;;9.70;1.00;;;;;;4977885;28;20457;-70
2022/11/19 10:26:16;;;;;;;1.10;0.83;;;9.80;1.00;;;;;;4975851;28;20477;-70
2022/11/19 10:28:50;;;;;;;4.57;2.37;;;9.80;1.00;;;;;;4990562;28;20458;-70
2022/11/19 10:31:27;;;;;;;2.00;1.20;;;9.90;99.90;;;;;;4987421;28;20459;-70
2022/11/19 10:34:01;;;;;;;1.23;0.80;;;9.90;1.00;;;;;;4973699;28;20957;-71
2022/11/19 10:36:33;;;;;;;2.50;2.03;;;10.00;99.90;;;;;;4984449;28;21273;-70
2022/11/19 10:39:06;;;;;;;5.80;0.80;;;10.10;99.90;;;;;;4984258;28;20769;-70
2022/11/19 10:41:37;;;;;;;3.23;1.20;;;10.10;1.00;;;;;;4982513;28;20456;-70
2022/11/19 10:44:36;;;;;;;2.60;0.80;;;10.10;1.00;;;;;;4988876;28;20453;-69
2022/11/19 10:47:05;;;;;;;1.17;0.80;;;10.20;99.90;;;;;;4971571;28;20548;-70
2022/11/19 10:49:38;;;;;;;1.13;0.80;;;10.20;99.90;;;;;;4978477;28;20479;-70
2022/11/19 10:52:09;;;;;;;1.20;0.90;;;10.30;99.90;;;;;;4985346;28;20449;-70
2022/11/19 10:54:38;;;;;;;1.40;0.90;;;10.10;1.00;;;;;;4973594;28;20470;-70
2022/11/19 10:57:12;;;;;;;2.60;0.87;;;10.00;1.00;;;;;;4977741;28;20456;-70
2022/11/19 10:59:39;;;;;;;1.20;0.87;;;10.00;1.00;;;;;;4983322;28;20457;-70
2022/11/19 11:02:22;;;;;;;1.43;0.80;;;9.90;1.00;;;;;;4984918;28;20486;-70
2022/11/19 11:05:11;;;;;;;1.73;0.80;;;9.90;1.00;;;;;;4972079;28;20437;-70
2022/11/19 11:07:51;;;;;;;0.90;0.70;;;9.80;30.50;;;;;;4978798;28;20564;-71
2022/11/19 11:10:30;;;;;;;0.90;0.70;;;9.90;1.00;;;;;;4978536;28;20458;-70
2022/11/19 11:15:50;;;;;;;1.00;0.70;;;9.80;74.30;;;;;;4981285;28;20427;-69
2022/11/19 11:18:19;;;;;;;0.83;0.63;;;9.90;1.00;;;;;;4974173;28;20471;-71
2022/11/19 11:20:49;;;;;;;1.07;0.97;;;9.80;1.00;;;;;;4980623;28;20978;-70
2022/11/19 11:23:18;;;;;;;1.53;1.00;;;9.90;1.00;;;;;;4988314;28;20461;-70
2022/11/19 11:25:54;;;;;;;1.53;0.90;;;10.00;1.00;;;;;;4989902;28;20977;-70
2022/11/19 11:28:22;;;;;;;1.23;0.87;;;10.00;99.90;;;;;;4973834;28;20472;-70
2022/11/19 11:30:53;;;;;;;1.13;0.60;;;10.00;95.50;;;;;;4980416;28;20467;-70
2022/11/19 11:33:33;;;;;;;0.90;0.60;;;9.90;1.00;;;;;;4974944;28;20508;-69
2022/11/19 11:36:03;;;;;;;1.37;0.63;;;9.90;99.90;;;;;;4987207;28;20980;-69
2022/11/19 11:38:30;;;;;;;3.23;0.73;;;10.00;99.90;;;;;;4981839;28;20455;-69
2022/11/19 11:41:04;;;;;;;2.40;0.80;;;10.00;1.00;;;;;;4985957;28;20451;-70
2022/11/19 11:43:33;;;;;;;1.40;0.83;;;9.90;1.00;;;;;;4978740;28;20445;-69
2022/11/19 11:46:02;;;;;;;0.80;0.50;;;9.80;1.00;;;;;;4988367;28;20466;-69
2022/11/19 11:48:36;;;;;;;0.80;0.50;;;9.90;99.90;;;;;;4975574;28;20482;-69
2022/11/19 11:51:05;;;;;;;0.90;0.60;;;9.90;1.00;;;;;;4988026;28;20452;-74
2022/11/19 11:53:33;;;;;;;1.03;0.70;;;9.90;99.90;;;;;;4979647;28;20450;-70
2022/11/19 11:56:01;;;;;;;1.20;0.83;;;9.90;99.80;;;;;;4976032;28;20451;-70
2022/11/19 11:58:30;;;;;;;0.80;0.57;;;9.80;1.00;;;;;;4987046;28;20512;-69
2022/11/19 12:01:11;;;;;;;3.03;0.90;;;9.90;1.00;;;;;;4982143;28;20501;-71
2022/11/19 12:03:53;;;;;;;2.20;0.70;;;9.80;99.90;;;;;;4989980;28;20452;-68
2022/11/19 12:06:23;;;;;;;0.90;0.60;;;9.80;99.90;;;;;;4995024;28;20458;-70
2022/11/19 12:09:00;;;;;;;0.80;0.60;;;9.70;99.90;;;;;;4993098;28;20824;-70
2022/11/19 12:14:19;;;;;;;1.07;0.80;;;9.70;99.90;;;;;;4983501;28;20458;-74
2022/11/19 12:16:56;;;;;;;0.90;0.80;;;9.70;1.00;;;;;;4980653;28;20458;-70
2022/11/19 12:19:43;;;;;;;1.30;0.90;;;9.80;1.00;;;;;;4983665;28;20442;-70
2022/11/19 12:22:17;;;;;;;1.50;0.80;;;9.80;99.90;;;;;;4992798;28;20454;-70
2022/11/19 12:24:58;;;;;;;1.53;0.80;;;9.70;1.00;;;;;;4993235;28;20545;-69
2022/11/19 12:27:34;;;;;;;2.40;0.80;;;9.80;99.90;;;;;;4993810;28;20485;-70
2022/11/19 12:30:06;;;;;;;2.83;1.30;;;9.90;99.90;;;;;;4993086;28;20461;-70
2022/11/19 12:32:52;;;;;;;1.07;0.60;;;9.90;99.90;;;;;;4982065;28;20479;-71
2022/11/19 12:35:34;;;;;;;1.53;0.87;;;9.80;99.90;;;;;;4976072;28;20452;-69
2022/11/19 12:38:34;;;;;;;1.67;1.00;;;9.90;1.00;;;;;;4991457;28;20546;-70
2022/11/19 12:41:13;;;;;;;1.10;0.70;;;9.90;1.00;;;;;;4987898;28;20538;-71
2022/11/19 12:43:53;;;;;;;1.40;0.80;;;9.80;99.90;;;;;;4979569;28;20457;-68
2022/11/19 12:46:32;;;;;;;0.80;0.60;;;9.70;1.00;;;;;;4974576;28;20462;-68
2022/11/19 12:49:28;;;;;;;0.80;0.50;;;9.70;99.90;;;;;;4980489;28;20454;-69
2022/11/19 12:52:03;;;;;;;3.33;0.80;;;9.60;1.00;;;;;;4986144;28;20469;-70
2022/11/19 12:54:44;;;;;;;0.87;0.57;;;9.50;1.00;;;;;;4985726;28;20442;-70
2022/11/19 12:57:31;;;;;;;1.27;0.77;;;9.40;1.00;;;;;;4980493;28;20478;-70
2022/11/19 13:00:18;;;;;;;1.83;0.83;;;9.40;1.00;;;;;;4982450;28;20463;-70
2022/11/19 13:02:56;;;;;;;1.57;0.90;;;9.30;1.00;;;;;;4974686;28;20473;-70
2022/11/19 13:05:32;;;;;;;0.90;0.70;;;9.40;99.90;;;;;;4985386;28;20449;-70
2022/11/19 13:08:06;;;;;;;1.00;0.70;;;9.40;99.90;;;;;;4988728;28;20473;-70
2022/11/19 13:10:38;;;;;;;2.37;1.10;;;9.50;99.90;;;;;;4978642;28;20457;-70
2022/11/19 13:13:08;;;;;;;3.83;1.03;;;9.50;99.00;;;;;;4980600;28;20529;-70
2022/11/19 13:15:39;;;;;;;1.17;0.70;;;9.50;1.00;;;;;;4975438;28;20788;-70
2022/11/19 13:18:11;;;;;;;1.03;0.73;;;9.50;1.00;;;;;;4984055;28;20468;-70
2022/11/19 13:20:45;;;;;;;0.80;0.67;;;9.60;1.00;;;;;;4984922;28;20469;-70
2022/11/19 13:23:20;;;;;;;3.23;1.50;;;9.60;1.00;;;;;;4980777;28;20449;-70
2022/11/19 13:25:56;;;;;;;2.00;1.00;;;9.60;1.00;;;;;;4988742;28;20462;-70
2022/11/19 13:28:29;;;;;;;2.10;1.00;;;9.60;99.90;;;;;;4985416;28;20470;-70
2022/11/19 13:31:00;;;;;;;1.03;0.80;;;9.50;1.00;;;;;;4974855;28;20466;-70
2022/11/19 13:33:33;;;;;;;1.20;0.83;;;9.50;1.00;;;;;;4974283;28;20451;-70